Latest Coastal Weather Observations for Tewantin

IDQ60701

Issued at 12:31 pm EST Tuesday 17 September 2019 (issued every 10 minutes, with the page automatically refreshed every 10 minutes)

About coastal observations | Map of coastal stations | Coastal observations for QLD | Marine services | Other Formats
Station Details ID: 040908 Name: TEWANTIN RSL PARK Lat: -26.39 Lon: 153.04 Height: 6.4 m
Data from the previous 72 hours. | See also: Recent months at Tewantin
Date/Time
EST
Wind Sea
Height
m
Swell Vis
km
Cloud Weather Temp
°C
Press
hPa
Rain since
9am
mm
Dir  Spd
kts
Gust
kts
Height
m
Period
s
Dir
17/12:30pm NNW 10 16 - - - - - - - 28.8 1015.5 0.0
17/12:00pm N 8 13 - - - - - - - 28.2 1016.0 0.0
17/11:30am N 8 12 - - - - - - - 27.4 1016.4 0.0
17/11:00am N 9 13 - - - - - - - 26.4 1017.0 0.0
17/10:30am NNW 7 12 - - - - - - - 26.2 1017.4 0.0
17/10:00am NW 9 13 - - - - - - - 25.1 1017.7 0.0
17/09:30am NW 10 17 - - - - - - - 24.0 1018.0 0.0
17/09:00am NW 8 14 - - - - - - - 22.8 1018.2 0.0
17/08:30am NNW 7 12 - - - - - - - 21.9 1018.4 0.0
17/08:00am NNW 8 12 - - - - - - - 20.5 1018.5 0.0
17/07:30am NNW 6 9 - - - - - - - 19.2 1018.4 0.0
17/07:00am NNW 5 8 - - - - - - - 17.4 1018.4 0.0
17/06:30am NNW 4 7 - - - - - - - 16.3 1018.1 0.0
17/06:00am NNW 4 5 - - - - - - - 15.5 1017.7 0.0
17/05:30am NNW 5 9 - - - - - - - 15.6 1017.5 0.0
17/05:00am N 5 7 - - - - - - - 15.4 1017.4 0.0
17/04:30am N 6 7 - - - - - - - 15.6 1017.3 0.0
17/04:00am NNW 5 8 - - - - - - - 15.6 1017.3 0.0
17/03:30am NNW 6 9 - - - - - - - 15.8 1017.2 0.0
17/03:00am NNW 5 9 - - - - - - - 15.6 1017.3 0.0
17/02:30am NW 6 9 - - - - - - - 15.8 1017.5 0.0
17/02:00am NNW 5 8 - - - - - - - 15.9 1017.8 0.0
17/01:30am NNW 5 7 - - - - - - - 16.2 1018.2 0.0
17/01:00am NW 7 10 - - - - - - - 16.8 1018.4 0.0
17/12:30am NNW 5 9 - - - - - - - 16.9 1018.7 0.0
17/12:00am N 6 8 - - - - - - - 17.1 1019.0 0.0
 
Date/Time
EST
Wind Sea
Height
m
Swell Vis
km
Cloud Weather Temp
°C
Press
hPa
Rain since
9am
mm
Dir  Spd
kts
Gust
kts
Height
m
Period
s
Dir
16/11:30pm NNW 6 9 - - - - - - - 17.2 1019.2 0.0
16/11:00pm NNW 6 10 - - - - - - - 17.2 1019.4 0.0
16/10:30pm NNW 7 11 - - - - - - - 17.6 1019.6 0.0
16/10:00pm NNW 7 11 - - - - - - - 17.7 1019.7 0.0
16/09:30pm NNW 5 7 - - - - - - - 17.8 1019.6 0.0
16/09:00pm NNW 8 11 - - - - - - - 18.4 1019.7 0.0
16/08:30pm NNW 8 13 - - - - - - - 18.8 1019.7 0.0
16/08:00pm NNW 5 8 - - - - - - - 18.9 1019.6 0.0
16/07:30pm NNW 5 7 - - - - - - - 19.5 1019.4 0.0
16/07:00pm N 6 9 - - - - - - - 19.9 1019.0 0.0
16/06:30pm N 7 11 - - - - - - - 20.2 1018.8 0.0
16/06:00pm NNE 8 11 - - - - - - - 20.2 1018.5 0.0
16/05:30pm NNE 10 16 - - - - - - - 20.7 1018.4 0.0
16/05:00pm NNE 11 16 - - - - - - - 21.0 1018.2 0.0
16/04:30pm NNE 12 18 - - - - - - - 21.5 1018.3 0.0
16/04:00pm NNE 13 22 - - - - - - - 21.8 1018.3 0.0
16/03:30pm NNE 12 19 - - - - - - - 22.1 1018.4 0.0
16/03:00pm NNE 11 20 - - - - - - - 22.6 1018.7 0.0
16/02:30pm NNE 13 19 - - - - - - - 22.3 1018.9 0.0
16/02:00pm NNE 11 21 - - - - - - - 22.2 1019.2 0.0
16/01:30pm NE 10 15 - - - - - - - 23.0 1019.5 0.0
16/01:00pm NE 11 17 - - - - - - - 22.9 1020.2 0.0
16/12:30pm NE 9 16 - - - - - - - 23.3 1020.7 0.0
16/12:00pm NE 8 13 - - - - - - - 23.0 1021.2 0.0
16/11:30am NNE 8 16 - - - - - - - 23.9 1021.8 0.0
16/11:00am N 8 13 - - - - - - - 23.5 1022.2 0.0
16/10:30am N 8 12 - - - - - - - 23.1 1022.7 0.0
16/10:00am N 7 10 - - - - - - - 21.8 1023.2 0.0
16/09:30am NNW 8 13 - - - - - - - 21.3 1023.5 0.0
16/09:00am NNW 7 11 - - - - - - - 20.0 1023.8 0.0
16/08:30am WNW 4 6 - - - - - - - 19.9 1024.1 0.0
16/08:00am NW 7 9 - - - - - - - 18.0 1024.0 0.0
16/07:30am NW 5 8 - - - - - - - 16.8 1023.9 0.0
16/07:00am NW 3 5 - - - - - - - 14.3 1023.6 0.0
16/06:30am CALM 0 3 - - - - - - - 12.6 1023.4 0.0
16/06:00am NNW 1 3 - - - - - - - 12.1 1023.2 0.0
16/05:30am NW 1 3 - - - - - - - 11.9 1023.2 0.0
16/05:00am CALM 0 0 - - - - - - - 12.0 1023.0 0.0
16/04:30am CALM 0 0 - - - - - - - 12.4 1022.7 0.0
16/04:00am CALM 0 0 - - - - - - - 12.8 1022.5 0.0
16/03:30am CALM 0 0 - - - - - - - 12.8 1022.2 0.0
16/03:00am CALM 0 0 - - - - - - - 12.9 1022.1 0.0
16/02:30am CALM 0 0 - - - - - - - 12.9 1022.2 0.0
16/02:00am CALM 0 0 - - - - - - - 12.8 1022.4 0.0
16/01:30am CALM 0 0 - - - - - - - 13.3 1022.6 0.0
16/01:00am CALM 0 0 - - - - - - - 13.7 1023.1 0.0
16/12:30am CALM 0 3 - - - - - - - 13.9 1023.3 0.0
16/12:00am CALM 0 0 - - - - - - - 13.7 1023.6 0.0
 
Date/Time
EST
Wind Sea
Height
m
Swell Vis
km
Cloud Weather Temp
°C
Press
hPa
Rain since
9am
mm
Dir  Spd
kts
Gust
kts
Height
m
Period
s
Dir
15/11:30pm CALM 0 0 - - - - - - - 13.7 1023.9 0.0
15/11:00pm CALM 0 0 - - - - - - - 14.2 1024.1 0.0
15/10:30pm CALM 0 0 - - - - - - - 14.7 1024.3 0.0
15/10:00pm CALM 0 0 - - - - - - - 15.2 1024.5 0.0
15/09:30pm CALM 0 0 - - - - - - - 15.4 1024.8 0.0
15/09:00pm CALM 0 0 - - - - - - - 16.4 1024.9 0.0
15/08:30pm CALM 0 0 - - - - - - - 16.9 1024.9 0.0
15/08:00pm CALM 0 0 - - - - - - - 17.8 1024.6 0.0
15/07:30pm NNE 3 4 - - - - - - - 18.4 1024.3 0.0
15/07:00pm NNE 1 4 - - - - - - - 18.5 1024.2 0.0
15/06:30pm NE 2 5 - - - - - - - 18.7 1024.0 0.0
15/06:00pm NE 3 5 - - - - - - - 19.0 1023.5 0.0
15/05:30pm NE 5 9 - - - - - - - 19.7 1023.4 0.0
15/05:00pm NE 6 9 - - - - - - - 20.4 1023.2 0.0
15/04:30pm NE 7 11 - - - - - - - 20.9 1022.9 0.0
15/04:00pm NE 7 11 - - - - - - - 21.3 1022.7 0.0
15/03:30pm ENE 8 12 - - - - - - - 21.5 1022.7 0.0
15/03:00pm ENE 7 12 - - - - - - - 22.2 1023.0 0.0
15/02:30pm NE 6 10 - - - - - - - 22.3 1023.0 0.0
15/02:00pm ENE 7 11 - - - - - - - 21.7 1023.2 0.0
15/01:30pm NE 7 11 - - - - - - - 22.7 1023.4 0.0
15/01:00pm NE 7 11 - - - - - - - 22.6 1023.9 0.0
15/12:30pm ESE 6 9 - - - - - - - 21.3 1024.3 0.0
15/12:00pm SE 6 10 - - - - - - - 21.9 1024.5 0.0
15/11:30am E 7 11 - - - - - - - 22.0 1024.7 0.0
15/11:00am ESE 7 11 - - - - - - - 21.4 1024.9 0.0
15/10:30am ESE 7 11 - - - - - - - 21.5 1025.2 0.0
15/10:00am ESE 6 11 - - - - - - - 21.9 1025.4 0.0
15/09:30am E 7 11 - - - - - - - 21.1 1025.5 0.0
15/09:00am ESE 6 11 - - - - - - - 20.7 1025.6 0.0
15/08:30am SE 6 9 - - - - - - - 20.6 1025.5 0.0
15/08:00am S 5 7 - - - - - - - 19.6 1025.4 0.0
15/07:30am S 5 7 - - - - - - - 18.0 1025.1 0.0
15/07:00am SSE 4 6 - - - - - - - 17.0 1024.8 0.0
15/06:30am S 1 4 - - - - - - - 16.1 1024.2 0.0
15/06:00am S 5 7 - - - - - - - 15.4 1023.7 0.0
15/05:30am CALM 0 3 - - - - - - - 15.3 1023.5 0.0
15/05:00am S 5 6 - - - - - - - 15.7 1023.0 0.0
15/04:30am SSW 4 5 - - - - - - - 16.0 1022.9 0.0
15/04:00am SSW 4 6 - - - - - - - 16.2 1022.7 0.0
15/03:30am SSW 5 8 - - - - - - - 16.4 1022.6 0.0
15/03:00am S 7 9 - - - - - - - 16.7 1022.4 0.0
15/02:30am S 7 10 - - - - - - - 16.7 1022.3 0.0
15/02:00am S 7 9 - - - - - - - 17.0 1022.6 0.0
15/01:30am S 6 9 - - - - - - - 17.2 1022.9 0.0
15/01:00am S 8 10 - - - - - - - 17.5 1023.0 0.0
15/12:30am S 7 9 - - - - - - - 17.8 1023.1 0.0
15/12:00am S 6 8 - - - - - - - 17.4 1023.2 0.0
 
Date/Time
EST
Wind Sea
Height
m
Swell Vis
km
Cloud Weather Temp
°C
Press
hPa
Rain since
9am
mm
Dir  Spd
kts
Gust
kts
Height
m
Period
s
Dir
14/11:30pm SSW 4 6 - - - - - - - 16.8 1023.1 0.0
14/11:00pm SSW 5 8 - - - - - - - 16.5 1023.1 0.0
14/10:30pm S 4 7 - - - - - - - 16.4 1022.9 0.0
14/10:00pm SW 3 8 - - - - - - - 16.8 1022.7 0.0
14/09:30pm SE 4 8 - - - - - - - 16.8 1022.2 0.0
14/09:00pm N 1 3 - - - - - - - 17.2 1021.5 0.0
14/08:30pm NW 3 4 - - - - - - - 17.4 1021.3 0.0
14/08:00pm CALM 0 3 - - - - - - - 17.8 1021.2 0.0
14/07:30pm NNW 4 5 - - - - - - - 18.5 1020.9 0.0
14/07:00pm NNW 4 5 - - - - - - - 19.0 1020.4 0.0
14/06:30pm N 5 7 - - - - - - - 19.5 1019.9 0.0
14/06:00pm N 5 8 - - - - - - - 20.0 1019.5 0.0
14/05:30pm N 6 9 - - - - - - - 20.5 1019.3 0.0
14/05:00pm NNE 6 10 - - - - - - - 21.0 1018.9 0.0
14/04:30pm NNE 7 12 - - - - - - - 21.6 1018.8 0.0
14/04:00pm NNE 9 13 - - - - - - - 21.9 1018.8 0.0
14/03:30pm NE 7 11 - - - - - - - 22.0 1018.7 0.0
14/03:00pm NNE 8 13 - - - - - - - 22.5 1018.7 0.0
14/02:30pm NNE 11 14 - - - - - - - 22.7 1018.8 0.0
14/02:00pm NNE 10 15 - - - - - - - 22.9 1019.0 0.0
14/01:30pm NE 8 11 - - - - - - - 23.1 1019.5 0.0
14/01:00pm NE 8 12 - - - - - - - 23.5 1019.8 0.0

Other formats

Comma delimited format used in spreadsheet applications
http://www.bom.gov.au/fwo/IDQ60701/IDQ60701.94570.axf

JavaScript Object Notation format (JSON) in row-major order
http://www.bom.gov.au/fwo/IDQ60701/IDQ60701.94570.json

Data quality

Most of these data are generated automatically and are frequently updated. Quality checks on data are not normally performed. It is possible for incorrect values to appear. Refer to information at About Latest Weather Observations and please check the disclaimer before using these data.